createdAt,value
2022-09-01T00:01:43.099Z,1.00
2022-09-01T00:04:13.605Z,0.90
2022-09-01T00:06:41.054Z,1.20
2022-09-01T00:09:10.958Z,0.98
2022-09-01T00:11:40.478Z,0.95
2022-09-01T00:14:29.406Z,1.10
2022-09-01T00:16:55.265Z,0.90
2022-09-01T00:19:23.297Z,0.90
2022-09-01T00:21:50.237Z,0.95
2022-09-01T00:24:18.870Z,1.17
2022-09-01T00:26:46.154Z,1.30
2022-09-01T00:29:12.940Z,1.10
2022-09-01T00:31:40.296Z,1.00
2022-09-01T00:34:06.980Z,1.05
2022-09-01T00:36:33.740Z,0.98
2022-09-01T00:39:00.460Z,0.98
2022-09-01T00:41:29.497Z,1.20
2022-09-01T00:43:59.393Z,1.00
2022-09-01T00:46:33.541Z,1.15
2022-09-01T00:49:07.970Z,0.98
2022-09-01T00:51:40.686Z,1.00
2022-09-01T00:54:12.011Z,1.15
2022-09-01T00:56:40.208Z,1.10
2022-09-01T00:59:15.064Z,0.93
2022-09-01T01:01:41.801Z,1.17
2022-09-01T01:04:14.915Z,0.90
2022-09-01T01:06:49.823Z,0.85
2022-09-01T01:09:20.196Z,1.00
2022-09-01T01:11:47.570Z,1.10
2022-09-01T01:14:17.369Z,0.90
2022-09-01T01:16:46.639Z,0.80
2022-09-01T01:19:54.748Z,0.97
2022-09-01T01:22:53.398Z,0.93
2022-09-01T01:25:22.448Z,1.20
2022-09-01T01:27:49.220Z,1.00
2022-09-01T01:30:18.211Z,0.85
2022-09-01T01:32:45.728Z,1.00
2022-09-01T01:35:14.809Z,0.90
2022-09-01T01:37:45.796Z,0.80
2022-09-01T01:40:18.136Z,0.77
2022-09-01T01:42:51.850Z,1.10
2022-09-01T01:45:22.014Z,1.00
2022-09-01T01:47:53.553Z,0.90
2022-09-01T01:50:33.481Z,0.98
2022-09-01T01:53:02.833Z,0.73
2022-09-01T01:55:37.901Z,0.90
2022-09-01T01:58:05.307Z,0.90
2022-09-01T02:00:35.005Z,0.90
2022-09-01T02:03:01.973Z,0.90
2022-09-01T02:05:33.661Z,1.00
2022-09-01T02:08:04.778Z,0.90
2022-09-01T02:10:39.225Z,0.77
2022-09-01T02:13:07.738Z,0.85
2022-09-01T02:15:44.512Z,0.65
2022-09-01T02:18:18.320Z,0.80
2022-09-01T02:20:50.267Z,1.05
2022-09-01T02:23:23.362Z,0.70
2022-09-01T02:26:15.179Z,1.00
2022-09-01T02:28:45.393Z,1.10
2022-09-01T02:31:12.782Z,1.10
2022-09-01T02:33:44.166Z,0.85
2022-09-01T02:36:15.227Z,1.13
2022-09-01T02:38:46.683Z,1.00
2022-09-01T02:41:14.317Z,0.90
2022-09-01T02:43:43.515Z,1.17
2022-09-01T02:46:11.535Z,0.90
2022-09-01T02:48:42.691Z,1.08
2022-09-01T02:51:13.050Z,1.00
2022-09-01T02:53:42.726Z,1.20
2022-09-01T02:56:14.155Z,1.08
2022-09-01T02:58:46.241Z,1.10
2022-09-01T03:01:20.447Z,1.17
2022-09-01T03:03:48.764Z,1.02
2022-09-01T03:06:18.532Z,1.13
2022-09-01T03:08:45.857Z,0.93
2022-09-01T03:11:13.432Z,1.08
2022-09-01T03:13:41.148Z,0.90
2022-09-01T03:16:09.766Z,0.90
2022-09-01T03:18:37.030Z,1.00
2022-09-01T03:21:05.203Z,1.00
2022-09-01T03:23:33.898Z,1.67
2022-09-01T03:26:01.631Z,1.15
2022-09-01T03:28:28.810Z,1.08
2022-09-01T03:30:57.961Z,1.08
2022-09-01T03:33:26.199Z,1.20
2022-09-01T03:35:53.716Z,1.00
2022-09-01T03:38:22.968Z,1.05
2022-09-01T03:40:52.183Z,1.50
2022-09-01T03:43:23.508Z,1.15
2022-09-01T03:45:50.354Z,1.20
2022-09-01T03:48:17.215Z,1.05
2022-09-01T03:50:46.437Z,1.35
2022-09-01T03:53:16.368Z,1.20
2022-09-01T03:55:45.658Z,1.35
2022-09-01T03:58:18.914Z,1.10
2022-09-01T04:00:50.080Z,1.17
2022-09-01T04:03:28.392Z,1.10
2022-09-01T04:05:55.783Z,1.20
2022-09-01T04:08:27.495Z,1.02
2022-09-01T04:11:03.776Z,1.33
2022-09-01T04:13:39.256Z,1.40
2022-09-01T04:16:29.703Z,1.10
2022-09-01T04:18:56.437Z,1.73
2022-09-01T04:21:23.106Z,1.45
2022-09-01T04:23:49.733Z,1.83
2022-09-01T04:26:20.457Z,1.90
2022-09-01T04:28:50.781Z,1.67
2022-09-01T04:33:52.838Z,1.40
2022-09-01T04:36:21.075Z,2.42
2022-09-01T04:38:49.421Z,1.67
2022-09-01T04:41:17.763Z,1.48
2022-09-01T04:43:47.448Z,1.48
2022-09-01T04:46:18.338Z,1.65
2022-09-01T04:48:48.029Z,2.10
2022-09-01T04:51:15.579Z,2.20
2022-09-01T04:53:48.623Z,2.08
2022-09-01T04:56:19.429Z,1.52
2022-09-01T04:58:47.895Z,2.13
2022-09-01T05:01:18.092Z,2.20
2022-09-01T05:03:46.008Z,1.90
2022-09-01T05:06:15.016Z,1.88
2022-09-01T05:08:41.980Z,2.30
2022-09-01T05:11:13.006Z,2.05
2022-09-01T05:13:40.276Z,1.92
2022-09-01T05:16:13.209Z,1.80
2022-09-01T05:18:42.185Z,1.60
2022-09-01T05:21:11.154Z,2.33
2022-09-01T05:23:40.379Z,2.40
2022-09-01T05:26:18.541Z,1.83
2022-09-01T05:28:47.317Z,1.70
2022-09-01T05:31:14.563Z,1.73
2022-09-01T05:33:46.066Z,2.10
2022-09-01T05:36:14.684Z,2.25
2022-09-01T05:38:42.256Z,2.00
2022-09-01T05:41:15.075Z,2.40
2022-09-01T05:43:48.202Z,2.20
2022-09-01T05:46:17.072Z,2.17
2022-09-01T05:48:45.659Z,2.65
2022-09-01T05:51:42.867Z,2.13
2022-09-01T05:54:09.850Z,1.70
2022-09-01T05:59:27.472Z,2.15
2022-09-01T06:01:55.631Z,1.60
2022-09-01T06:04:24.754Z,1.67
2022-09-01T06:07:10.305Z,1.92
2022-09-01T06:09:40.116Z,1.65
2022-09-01T06:12:17.571Z,2.03
2022-09-01T06:14:46.566Z,1.88
2022-09-01T06:17:16.505Z,1.58
2022-09-01T06:22:10.727Z,1.55
2022-09-01T06:24:40.860Z,1.75
2022-09-01T06:27:10.649Z,1.92
2022-09-01T06:29:40.903Z,1.90
2022-09-01T06:34:42.582Z,1.60
2022-09-01T06:39:36.839Z,1.70
2022-09-01T06:42:06.180Z,1.40
2022-09-01T06:44:33.503Z,1.50
2022-09-01T06:47:00.462Z,1.67
2022-09-01T06:49:33.175Z,1.70
2022-09-01T06:52:00.957Z,1.63
2022-09-01T06:54:27.812Z,1.60
2022-09-01T06:56:55.287Z,1.52
2022-09-01T06:59:21.948Z,1.70
2022-09-01T07:01:51.545Z,1.50
2022-09-01T07:04:21.366Z,1.60
2022-09-01T07:07:00.246Z,1.83
2022-09-01T07:12:27.705Z,2.13
2022-09-01T07:17:43.196Z,2.45
2022-09-01T07:23:06.383Z,2.33
2022-09-01T07:26:00.557Z,2.13
2022-09-01T07:28:36.134Z,1.98
2022-09-01T07:34:38.448Z,1.70
2022-09-01T07:39:48.973Z,1.73
2022-09-01T07:42:59.235Z,2.63
2022-09-01T07:45:26.048Z,1.65
2022-09-01T07:47:54.083Z,1.60
2022-09-01T07:53:09.316Z,1.65
2022-09-01T07:55:40.345Z,1.80
2022-09-01T07:58:07.151Z,1.30
2022-09-01T08:00:34.257Z,1.30
2022-09-01T08:03:01.319Z,1.38
2022-09-01T08:05:28.942Z,1.50
2022-09-01T08:07:55.907Z,1.40
2022-09-01T08:10:22.811Z,1.50
2022-09-01T08:12:57.536Z,1.20
2022-09-01T08:16:06.409Z,1.10
2022-09-01T08:18:14.556Z,1.10
2022-09-01T08:20:47.369Z,1.10
2022-09-01T08:23:18.440Z,1.02
2022-09-01T08:25:48.394Z,1.35
2022-09-01T08:28:16.184Z,1.20
2022-09-01T08:30:52.040Z,1.17
2022-09-01T08:33:19.949Z,1.25
2022-09-01T08:35:48.715Z,1.40
2022-09-01T08:38:15.780Z,1.27
2022-09-01T08:40:49.685Z,1.00
2022-09-01T08:43:37.298Z,1.35
2022-09-01T08:46:17.168Z,1.42
2022-09-01T08:49:24.130Z,1.60
2022-09-01T08:51:41.828Z,1.30
2022-09-01T08:54:31.916Z,1.05
2022-09-01T08:59:32.105Z,0.95
2022-09-01T09:02:41.148Z,0.90
2022-09-01T09:05:28.513Z,1.15
2022-09-01T09:08:29.657Z,1.27
2022-09-01T09:11:06.621Z,1.00
2022-09-01T09:14:04.124Z,0.93
2022-09-01T09:16:39.567Z,1.02
2022-09-01T09:19:26.073Z,0.95
2022-09-01T09:21:55.260Z,0.90
2022-09-01T09:24:52.941Z,1.00
2022-09-01T09:27:30.006Z,0.95
2022-09-01T09:30:08.356Z,1.10
2022-09-01T09:33:46.579Z,1.38
2022-09-01T09:35:47.316Z,1.02
2022-09-01T09:38:21.491Z,1.02
2022-09-01T09:41:16.364Z,0.98
2022-09-01T09:43:59.426Z,0.90
2022-09-01T09:46:32.304Z,1.30
2022-09-01T09:49:34.212Z,0.95
2022-09-01T09:52:03.413Z,1.08
2022-09-01T09:54:35.473Z,0.85
2022-09-01T09:57:12.025Z,0.95
2022-09-01T10:00:01.152Z,0.90
2022-09-01T10:02:36.252Z,1.00
2022-09-01T10:05:24.042Z,1.00
2022-09-01T10:07:51.945Z,1.02
2022-09-01T10:10:38.641Z,1.15
2022-09-01T10:13:10.643Z,3.22
2022-09-01T10:15:38.211Z,1.10
2022-09-01T10:18:28.753Z,0.98
2022-09-01T10:21:37.703Z,0.80
2022-09-01T10:24:30.917Z,1.08
2022-09-01T10:27:03.204Z,0.90
2022-09-01T10:29:47.569Z,0.80
2022-09-01T10:32:35.219Z,0.68
2022-09-01T10:35:04.992Z,0.70
2022-09-01T10:37:32.359Z,0.95
2022-09-01T10:40:31.967Z,1.05
2022-09-01T10:43:21.788Z,0.70
2022-09-01T10:45:54.823Z,0.77
2022-09-01T10:48:32.124Z,0.88
2022-09-01T10:51:18.458Z,0.82
2022-09-01T10:53:49.267Z,0.70
2022-09-01T10:56:44.340Z,0.65
2022-09-01T10:59:32.659Z,0.77
2022-09-01T11:02:34.760Z,0.68
2022-09-01T11:04:59.387Z,0.63
2022-09-01T11:08:00.501Z,0.70
2022-09-01T11:10:34.175Z,0.90
2022-09-01T11:13:08.064Z,0.90
2022-09-01T11:15:42.788Z,0.75
2022-09-01T11:18:26.280Z,0.80
2022-09-01T11:20:55.536Z,0.60
2022-09-01T11:23:34.425Z,0.65
2022-09-01T11:26:32.873Z,0.60
2022-09-01T11:29:01.231Z,0.90
2022-09-01T11:31:41.000Z,0.80
2022-09-01T11:34:14.534Z,0.77
2022-09-01T11:36:45.910Z,1.20
2022-09-01T11:39:19.337Z,0.70
2022-09-01T11:42:08.266Z,0.60
2022-09-01T11:44:49.716Z,0.77
2022-09-01T11:47:30.496Z,0.65
2022-09-01T11:50:00.884Z,0.60
2022-09-01T11:52:31.646Z,0.45
2022-09-01T11:54:59.418Z,0.60
2022-09-01T11:57:30.989Z,0.80
2022-09-01T11:59:59.800Z,0.93
2022-09-01T12:02:36.727Z,0.90
2022-09-01T12:05:24.431Z,0.80
2022-09-01T12:07:51.190Z,0.90
2022-09-01T12:10:26.296Z,0.50
2022-09-01T12:13:11.634Z,0.50
2022-09-01T12:16:07.115Z,0.60
2022-09-01T12:18:35.158Z,0.70
2022-09-01T12:21:04.192Z,0.68
2022-09-01T12:23:38.259Z,0.60
2022-09-01T12:26:19.089Z,0.77
2022-09-01T12:28:49.592Z,1.00
2022-09-01T12:31:21.776Z,0.60
2022-09-01T12:33:49.396Z,0.77
2022-09-01T12:36:29.797Z,0.60
2022-09-01T12:39:17.118Z,0.70
2022-09-01T12:42:01.035Z,0.80
2022-09-01T12:44:35.012Z,0.77
2022-09-01T12:47:14.394Z,0.70
2022-09-01T12:49:50.754Z,0.70
2022-09-01T12:52:27.699Z,0.82
2022-09-01T12:55:04.179Z,0.73
2022-09-01T12:57:32.474Z,0.60
2022-09-01T13:00:11.852Z,1.00
2022-09-01T13:02:50.819Z,0.93
2022-09-01T13:05:42.467Z,1.10
2022-09-01T13:08:16.379Z,0.70
2022-09-01T13:10:53.267Z,0.75
2022-09-01T13:13:22.278Z,0.80
2022-09-01T13:15:51.816Z,0.50
2022-09-01T13:18:23.161Z,0.80
2022-09-01T13:20:51.445Z,0.68
2022-09-01T13:23:18.271Z,0.90
2022-09-01T13:25:46.633Z,1.02
2022-09-01T13:28:15.058Z,0.60
2022-09-01T13:30:45.218Z,0.65
2022-09-01T13:33:28.449Z,1.13
2022-09-01T13:35:55.629Z,0.60
2022-09-01T13:38:22.580Z,0.60
2022-09-01T13:40:50.713Z,0.65
2022-09-01T13:43:20.780Z,0.60
2022-09-01T13:48:16.283Z,0.70
2022-09-01T13:53:32.334Z,0.73
2022-09-01T13:55:59.101Z,0.60
2022-09-01T13:58:25.946Z,0.75
2022-09-01T14:00:52.769Z,0.73
2022-09-01T14:03:22.442Z,0.80
2022-09-01T14:05:50.152Z,0.77
2022-09-01T14:08:20.891Z,0.70
2022-09-01T14:10:51.122Z,0.85
2022-09-01T14:13:20.949Z,0.80
2022-09-01T14:15:48.337Z,0.60
2022-09-01T14:18:16.372Z,0.65
2022-09-01T14:20:48.814Z,0.60
2022-09-01T14:23:15.904Z,0.98
2022-09-01T14:25:48.877Z,0.88
2022-09-01T14:28:16.823Z,0.65
2022-09-01T14:33:17.328Z,0.82
2022-09-01T14:35:46.981Z,0.80
2022-09-01T14:38:14.942Z,0.70
2022-09-01T14:40:43.278Z,0.60
2022-09-01T14:43:12.715Z,0.90
2022-09-01T14:45:40.045Z,0.88
2022-09-01T14:48:07.465Z,0.60
2022-09-01T14:50:35.041Z,0.60
2022-09-01T14:53:02.913Z,0.75
2022-09-01T14:55:30.883Z,1.00
2022-09-01T14:57:58.447Z,0.80
2022-09-01T15:00:25.473Z,0.85
2022-09-01T15:02:53.796Z,0.85
2022-09-01T15:05:21.132Z,0.75
2022-09-01T15:07:47.826Z,0.85
2022-09-01T15:10:24.358Z,0.90
2022-09-01T15:12:57.017Z,0.82
2022-09-01T15:15:24.126Z,0.90
2022-09-01T15:17:50.850Z,0.82
2022-09-01T15:20:36.427Z,0.70
2022-09-01T15:23:06.020Z,0.75
2022-09-01T15:25:33.027Z,1.08
2022-09-01T15:27:59.727Z,0.75
2022-09-01T15:30:27.944Z,0.90
2022-09-01T15:38:17.421Z,0.82
2022-09-01T15:40:45.248Z,0.90
2022-09-01T15:43:21.178Z,0.90
2022-09-01T15:45:48.729Z,1.00
2022-09-01T15:48:15.606Z,0.88
2022-09-01T15:50:42.367Z,0.90
2022-09-01T15:53:11.921Z,1.20
2022-09-01T15:55:42.154Z,0.90
2022-09-01T16:00:36.149Z,1.45
2022-09-01T16:03:05.374Z,1.35
2022-09-01T16:05:35.082Z,1.00
2022-09-01T16:08:04.826Z,0.80
2022-09-01T16:10:33.707Z,1.17
2022-09-01T16:13:03.910Z,0.90
2022-09-01T16:15:30.795Z,1.23
2022-09-01T16:18:28.716Z,1.10
2022-09-01T16:21:22.291Z,1.27
2022-09-01T16:23:51.921Z,1.10
2022-09-01T16:26:21.878Z,0.93
2022-09-01T16:28:52.314Z,0.90
2022-09-01T16:31:25.903Z,0.80
2022-09-01T16:33:59.776Z,0.70
2022-09-01T16:36:26.348Z,0.70
2022-09-01T16:39:02.452Z,0.70
2022-09-01T16:41:54.080Z,0.55
2022-09-01T16:44:30.264Z,0.80
2022-09-01T16:47:25.473Z,1.02
2022-09-01T16:50:08.810Z,0.82
2022-09-01T16:52:56.364Z,1.00
2022-09-01T16:55:38.661Z,0.88
2022-09-01T16:58:29.125Z,0.82
2022-09-01T17:01:14.203Z,0.82
2022-09-01T17:03:43.035Z,0.65
2022-09-01T17:06:31.706Z,1.00
2022-09-01T17:09:03.750Z,0.90
2022-09-01T17:11:49.128Z,0.93
2022-09-01T17:14:25.449Z,0.85
2022-09-01T17:16:55.325Z,0.90
2022-09-01T17:19:22.696Z,0.80
2022-09-01T17:22:17.420Z,1.05
2022-09-01T17:24:54.946Z,0.73
2022-09-01T17:27:45.514Z,0.80
2022-09-01T17:30:12.515Z,1.00
2022-09-01T17:33:17.339Z,0.77
2022-09-01T17:36:23.982Z,1.02
2022-09-01T17:39:08.238Z,0.90
2022-09-01T17:42:30.307Z,1.10
2022-09-01T17:45:51.187Z,0.90
2022-09-01T17:48:33.557Z,1.05
2022-09-01T17:51:37.616Z,0.77
2022-09-01T17:54:37.252Z,1.27
2022-09-01T17:57:18.184Z,0.90
2022-09-01T18:00:02.854Z,1.42
2022-09-01T18:02:46.025Z,1.58
2022-09-01T18:05:14.922Z,0.82
2022-09-01T18:08:21.301Z,1.00
2022-09-01T18:10:55.266Z,0.90
2022-09-01T18:13:52.472Z,1.05
2022-09-01T18:16:24.764Z,1.30
2022-09-01T18:18:53.182Z,1.10
2022-09-01T18:21:34.561Z,1.48
2022-09-01T18:24:13.378Z,1.75
2022-09-01T18:26:43.298Z,1.30
2022-09-01T18:29:10.534Z,1.20
2022-09-01T18:32:03.496Z,1.40
2022-09-01T18:34:54.148Z,1.30
2022-09-01T18:37:53.351Z,1.67
2022-09-01T18:40:35.823Z,1.70
2022-09-01T18:43:05.593Z,1.50
2022-09-01T18:45:42.544Z,1.40
2022-09-01T18:48:46.538Z,1.50
2022-09-01T18:51:53.465Z,1.80
2022-09-01T18:54:47.638Z,1.38
2022-09-01T18:57:21.164Z,2.00
2022-09-01T19:00:19.010Z,1.63
2022-09-01T19:03:16.197Z,1.98
2022-09-01T19:06:11.638Z,1.80
2022-09-01T19:08:48.630Z,1.58
2022-09-01T19:11:37.943Z,1.67
2022-09-01T19:14:20.834Z,2.05
2022-09-01T19:17:17.889Z,1.90
2022-09-01T19:19:48.257Z,1.73
2022-09-01T19:22:27.328Z,2.00
2022-09-01T19:25:19.559Z,1.95
2022-09-01T19:27:56.744Z,1.63
2022-09-01T19:30:23.388Z,2.22
2022-09-01T19:32:51.150Z,1.90
2022-09-01T19:35:18.482Z,2.15
2022-09-01T19:37:50.563Z,2.13
2022-09-01T19:40:25.251Z,2.00
2022-09-01T19:43:09.741Z,1.83
2022-09-01T19:45:56.927Z,1.77
2022-09-01T19:48:39.689Z,1.38
2022-09-01T19:51:15.061Z,1.88
2022-09-01T19:53:53.583Z,1.70
2022-09-01T19:56:49.572Z,2.00
2022-09-01T19:59:44.022Z,2.47
2022-09-01T20:02:30.593Z,2.10
2022-09-01T20:05:02.877Z,2.22
2022-09-01T20:07:44.255Z,2.20
2022-09-01T20:10:19.525Z,2.60
2022-09-01T20:13:06.329Z,2.20
2022-09-01T20:16:12.309Z,2.17
2022-09-01T20:18:48.790Z,1.98
2022-09-01T20:21:20.723Z,3.03
2022-09-01T20:23:55.716Z,2.20
2022-09-01T20:26:39.393Z,2.30
2022-09-01T20:29:17.341Z,2.28
2022-09-01T20:31:50.058Z,2.35
2022-09-01T20:34:37.452Z,2.25
2022-09-01T20:37:20.810Z,2.60
2022-09-01T20:40:00.569Z,2.35
2022-09-01T20:42:35.070Z,2.33
2022-09-01T20:45:13.883Z,2.60
2022-09-01T20:47:42.748Z,2.58
2022-09-01T20:50:12.576Z,2.47
2022-09-01T20:53:11.190Z,2.33
2022-09-01T20:55:52.513Z,2.30
2022-09-01T20:58:32.346Z,2.20
2022-09-01T21:01:19.562Z,2.38
2022-09-01T21:04:06.446Z,2.13
2022-09-01T21:07:02.458Z,1.92
2022-09-01T21:09:34.826Z,2.75
2022-09-01T21:12:26.723Z,1.92
2022-09-01T21:15:04.592Z,2.03
2022-09-01T21:17:52.921Z,2.30
2022-09-01T21:20:44.084Z,2.03
2022-09-01T21:23:11.144Z,2.17
2022-09-01T21:25:37.807Z,1.80
2022-09-01T21:28:06.509Z,2.00
2022-09-01T21:30:34.945Z,1.80
2022-09-01T21:33:02.984Z,1.70
2022-09-01T21:35:29.682Z,1.70
2022-09-01T21:37:56.346Z,2.05
2022-09-01T21:40:25.203Z,1.95
2022-09-01T21:42:58.458Z,1.77
2022-09-01T21:45:25.549Z,2.30
2022-09-01T21:47:53.229Z,1.90
2022-09-01T21:50:23.329Z,1.77
2022-09-01T21:52:50.219Z,1.85
2022-09-01T21:55:22.537Z,2.08
2022-09-01T21:57:49.855Z,1.92
2022-09-01T22:00:19.897Z,1.98
2022-09-01T22:02:46.758Z,1.45
2022-09-01T22:05:14.384Z,2.13
2022-09-01T22:07:44.821Z,1.90
2022-09-01T22:10:17.902Z,1.80
2022-09-01T22:12:46.440Z,1.98
2022-09-01T22:15:17.085Z,1.88
2022-09-01T22:17:44.833Z,1.42
2022-09-01T22:20:13.884Z,1.60
2022-09-01T22:22:40.747Z,1.77
2022-09-01T22:25:10.966Z,1.50
2022-09-01T22:30:06.538Z,1.58
2022-09-01T22:32:38.752Z,1.58
2022-09-01T22:35:07.641Z,1.67
2022-09-01T22:37:35.334Z,1.40
2022-09-01T22:40:02.436Z,1.50
2022-09-01T22:42:29.162Z,1.60
2022-09-01T22:44:55.844Z,1.95
2022-09-01T22:47:22.483Z,1.75
2022-09-01T22:49:49.329Z,1.83
2022-09-01T22:52:16.266Z,1.27
2022-09-01T22:54:43.412Z,1.60
2022-09-01T22:57:10.148Z,1.70
2022-09-01T22:59:36.810Z,1.63
2022-09-01T23:02:03.596Z,1.95
2022-09-01T23:04:32.169Z,1.58
2022-09-01T23:06:58.944Z,1.52
2022-09-01T23:09:25.849Z,1.80
2022-09-01T23:11:52.637Z,1.45
2022-09-01T23:14:19.452Z,1.60
2022-09-01T23:16:47.136Z,1.38
2022-09-01T23:19:19.537Z,1.92
2022-09-01T23:21:47.817Z,1.10
2022-09-01T23:24:15.365Z,1.70
2022-09-01T23:26:44.995Z,1.42
2022-09-01T23:29:12.378Z,1.58
2022-09-01T23:31:39.708Z,1.52
2022-09-01T23:34:07.897Z,1.48
2022-09-01T23:36:35.829Z,1.52
2022-09-01T23:39:03.649Z,1.60
2022-09-01T23:41:32.895Z,1.48
2022-09-01T23:44:02.886Z,1.60
2022-09-01T23:46:33.488Z,1.80
2022-09-01T23:49:01.687Z,1.67
2022-09-01T23:51:28.504Z,1.30
2022-09-01T23:53:55.176Z,1.45
2022-09-01T23:56:24.524Z,1.50
2022-09-01T23:58:51.627Z,1.63
